createdAt,value
2019-06-07T00:00:38.648Z,4.50
2019-06-07T00:01:28.816Z,6.50
2019-06-07T00:02:28.805Z,4.50
2019-06-07T00:03:30.289Z,4.40
2019-06-07T00:04:28.789Z,4.50
2019-06-07T00:05:28.809Z,5.00
2019-06-07T00:06:28.968Z,5.50
2019-06-07T00:07:28.760Z,4.50
2019-06-07T00:08:29.368Z,4.40
2019-06-07T00:09:28.739Z,4.40
2019-06-07T00:10:36.685Z,4.30
2019-06-07T00:11:28.718Z,4.80
2019-06-07T00:12:28.709Z,6.10
2019-06-07T00:13:28.702Z,4.40
2019-06-07T00:14:28.692Z,5.60
2019-06-07T00:15:29.418Z,4.90
2019-06-07T00:16:28.675Z,4.70
2019-06-07T00:17:28.674Z,4.70
2019-06-07T00:18:28.651Z,5.00
2019-06-07T00:19:28.644Z,5.20
2019-06-07T00:20:28.635Z,4.90
2019-06-07T00:22:12.726Z,4.30
2019-06-07T00:22:33.081Z,4.70
2019-06-07T00:23:28.604Z,4.70
2019-06-07T00:24:28.597Z,5.30
2019-06-07T00:25:28.590Z,5.60
2019-06-07T00:26:28.576Z,5.30
2019-06-07T00:27:28.582Z,4.90
2019-06-07T00:28:28.556Z,5.90
2019-06-07T00:29:28.553Z,4.70
2019-06-07T00:30:41.190Z,5.50
2019-06-07T00:31:28.534Z,6.50
2019-06-07T00:32:28.519Z,5.70
2019-06-07T00:33:28.509Z,4.80
2019-06-07T00:34:28.500Z,5.50
2019-06-07T00:35:28.488Z,4.80
2019-06-07T00:36:28.481Z,4.70
2019-06-07T00:37:28.481Z,5.10
2019-06-07T00:38:28.459Z,4.60
2019-06-07T00:39:28.454Z,6.30
2019-06-07T00:40:32.102Z,7.10
2019-06-07T00:41:28.488Z,5.20
2019-06-07T00:42:28.426Z,6.20
2019-06-07T00:43:28.764Z,5.30
2019-06-07T00:44:28.412Z,5.80
2019-06-07T00:45:28.393Z,5.80
2019-06-07T00:46:28.382Z,6.50
2019-06-07T00:47:28.376Z,5.60
2019-06-07T00:48:32.576Z,5.90
2019-06-07T00:49:40.684Z,5.60
2019-06-07T00:50:28.343Z,5.50
2019-06-07T00:51:47.566Z,7.30
2019-06-07T00:53:32.005Z,6.00
2019-06-07T00:54:28.308Z,5.20
2019-06-07T00:55:28.297Z,4.00
2019-06-07T00:56:28.289Z,7.00
2019-06-07T00:57:28.287Z,6.50
2019-06-07T00:58:29.533Z,4.80
2019-06-07T00:59:29.490Z,5.60
2019-06-07T01:00:28.251Z,6.00
2019-06-07T01:01:28.238Z,5.00
2019-06-07T01:02:31.425Z,6.00
2019-06-07T01:03:28.219Z,5.30
2019-06-07T01:04:28.212Z,7.60
2019-06-07T01:05:31.286Z,5.60
2019-06-07T01:06:28.194Z,5.60
2019-06-07T01:07:28.187Z,4.50
2019-06-07T01:08:30.118Z,5.20
2019-06-07T01:09:28.167Z,4.50
2019-06-07T01:10:51.802Z,4.70
2019-06-07T01:11:28.143Z,4.70
2019-06-07T01:12:28.132Z,5.00
2019-06-07T01:13:28.123Z,5.80
2019-06-07T01:14:28.981Z,5.50
2019-06-07T01:15:29.361Z,5.80
2019-06-07T01:16:28.098Z,5.90
2019-06-07T01:17:41.176Z,6.60
2019-06-07T01:18:39.240Z,5.80
2019-06-07T01:19:28.180Z,6.50
2019-06-07T01:20:28.109Z,6.20
2019-06-07T01:21:29.323Z,6.20
2019-06-07T01:22:29.372Z,6.30
2019-06-07T01:24:04.937Z,6.50
2019-06-07T01:24:28.296Z,6.50
2019-06-07T01:25:28.950Z,6.00
2019-06-07T01:26:30.409Z,6.50
2019-06-07T01:27:28.761Z,6.90
2019-06-07T01:28:30.207Z,7.00
2019-06-07T01:29:30.873Z,7.00
2019-06-07T01:30:29.281Z,6.50
2019-06-07T01:31:31.337Z,6.70
2019-06-07T01:32:31.657Z,7.10
2019-06-07T01:33:49.313Z,7.10
2019-06-07T01:34:28.889Z,7.00
2019-06-07T01:35:29.938Z,7.10
2019-06-07T01:36:29.555Z,6.70
2019-06-07T01:37:30.098Z,6.80
2019-06-07T01:38:30.002Z,6.40
2019-06-07T01:39:29.755Z,6.90
2019-06-07T01:40:32.310Z,6.80
2019-06-07T01:41:30.631Z,6.90
2019-06-07T01:42:29.492Z,7.30
2019-06-07T01:43:30.554Z,7.10
2019-06-07T01:44:30.671Z,6.90
2019-06-07T01:45:30.923Z,8.00
2019-06-07T01:46:28.760Z,7.50
2019-06-07T01:47:31.239Z,6.70
2019-06-07T01:48:46.210Z,8.00
2019-06-07T01:49:29.538Z,8.70
2019-06-07T01:50:29.618Z,7.10
2019-06-07T01:51:30.452Z,7.10
2019-06-07T01:52:29.586Z,6.70
2019-06-07T01:53:29.099Z,6.80
2019-06-07T01:54:53.358Z,6.00
2019-06-07T01:55:32.349Z,7.60
2019-06-07T01:56:29.840Z,7.60
2019-06-07T01:57:44.727Z,7.40
2019-06-07T01:58:29.213Z,8.00
2019-06-07T01:59:28.594Z,10.20
2019-06-07T02:00:31.906Z,7.90
2019-06-07T02:01:34.633Z,8.10
2019-06-07T02:02:30.030Z,8.40
2019-06-07T02:03:32.159Z,8.80
2019-06-07T02:04:32.410Z,8.10
2019-06-07T02:05:30.988Z,7.70
2019-06-07T02:06:31.820Z,8.40
2019-06-07T02:07:32.602Z,8.70
2019-06-07T02:08:34.094Z,8.90
2019-06-07T02:09:29.888Z,8.90
2019-06-07T02:10:32.525Z,8.50
2019-06-07T02:11:29.333Z,8.30
2019-06-07T02:12:37.612Z,7.60
2019-06-07T02:13:29.344Z,6.90
2019-06-07T02:14:32.440Z,7.60
2019-06-07T02:15:31.107Z,8.10
2019-06-07T02:16:30.346Z,9.40
2019-06-07T02:17:30.157Z,8.50
2019-06-07T02:18:29.139Z,7.80
2019-06-07T02:19:31.307Z,8.60
2019-06-07T02:20:33.484Z,8.80
2019-06-07T02:21:30.388Z,8.50
2019-06-07T02:22:30.550Z,7.60
2019-06-07T02:23:30.934Z,7.90
2019-06-07T02:24:29.609Z,8.90
2019-06-07T02:25:38.285Z,8.60
2019-06-07T02:26:29.959Z,8.60
2019-06-07T02:27:27.586Z,9.30
2019-06-07T02:28:42.664Z,8.70
2019-06-07T02:29:30.257Z,8.00
2019-06-07T02:30:51.022Z,8.70
2019-06-07T02:31:31.483Z,9.30
2019-06-07T02:32:32.015Z,9.20
2019-06-07T02:33:33.528Z,9.30
2019-06-07T02:34:34.812Z,9.90
2019-06-07T02:35:34.857Z,9.20
2019-06-07T02:36:30.496Z,8.10
2019-06-07T02:37:31.618Z,8.20
2019-06-07T02:38:31.066Z,8.40
2019-06-07T02:39:28.827Z,9.30
2019-06-07T02:40:32.343Z,9.30
2019-06-07T02:41:33.622Z,9.40
2019-06-07T02:42:30.792Z,8.90
2019-06-07T02:43:28.353Z,9.50
2019-06-07T02:44:31.810Z,8.80
2019-06-07T02:45:35.528Z,8.90
2019-06-07T02:46:36.226Z,9.00
2019-06-07T02:47:28.678Z,9.70
2019-06-07T02:48:32.506Z,9.20
2019-06-07T02:49:32.965Z,8.80
2019-06-07T02:50:29.139Z,10.00
2019-06-07T02:51:32.730Z,10.50
2019-06-07T02:52:31.666Z,9.40
2019-06-07T02:53:29.658Z,10.20
2019-06-07T02:54:29.904Z,10.40
2019-06-07T02:55:30.780Z,10.10
2019-06-07T02:56:39.042Z,10.60
2019-06-07T02:57:29.381Z,11.00
2019-06-07T02:58:31.130Z,10.50
2019-06-07T02:59:54.934Z,11.60
2019-06-07T03:00:45.758Z,10.00
2019-06-07T03:01:28.532Z,11.50
2019-06-07T03:02:32.843Z,9.90
2019-06-07T03:03:30.048Z,10.30
2019-06-07T03:04:29.007Z,10.90
2019-06-07T03:05:27.385Z,10.80
2019-06-07T03:06:29.852Z,11.10
2019-06-07T03:07:28.295Z,10.80
2019-06-07T03:08:28.261Z,12.10
2019-06-07T03:09:30.847Z,11.80
2019-06-07T03:10:28.551Z,11.80
2019-06-07T03:11:28.212Z,11.40
2019-06-07T03:12:28.969Z,11.20
2019-06-07T03:13:28.896Z,11.30
2019-06-07T03:14:28.517Z,10.50
2019-06-07T03:15:38.733Z,12.10
2019-06-07T03:16:26.934Z,11.70
2019-06-07T03:17:27.665Z,12.20
2019-06-07T03:18:29.017Z,11.70
2019-06-07T03:19:26.905Z,11.90
2019-06-07T03:20:27.599Z,13.50
2019-06-07T03:21:28.173Z,12.50
2019-06-07T03:22:26.896Z,12.10
2019-06-07T03:23:28.707Z,10.70
2019-06-07T03:24:31.070Z,10.60
2019-06-07T03:25:28.179Z,11.70
2019-06-07T03:26:27.591Z,13.60
2019-06-07T03:27:36.083Z,11.10
2019-06-07T03:28:27.575Z,10.60
2019-06-07T03:29:28.868Z,11.40
2019-06-07T03:30:59.674Z,10.80
2019-06-07T03:31:28.467Z,10.90
2019-06-07T03:32:30.302Z,11.20
2019-06-07T03:33:26.915Z,10.80
2019-06-07T03:34:29.705Z,11.40
2019-06-07T03:35:28.378Z,11.40
2019-06-07T03:36:27.549Z,11.10
2019-06-07T03:37:28.065Z,11.10
2019-06-07T03:38:27.622Z,11.90
2019-06-07T03:39:28.444Z,11.40
2019-06-07T03:40:26.773Z,11.80
2019-06-07T03:41:29.203Z,12.40
2019-06-07T03:42:26.708Z,12.30
2019-06-07T03:43:27.340Z,12.40
2019-06-07T03:44:28.663Z,11.90
2019-06-07T03:45:28.622Z,11.90
2019-06-07T03:46:27.330Z,11.80
2019-06-07T03:47:30.611Z,12.30
2019-06-07T03:48:28.476Z,12.40
2019-06-07T03:49:28.035Z,13.60
2019-06-07T03:50:30.601Z,12.10
2019-06-07T03:51:27.409Z,13.20
2019-06-07T03:52:27.450Z,12.60
2019-06-07T03:53:30.468Z,13.00
2019-06-07T03:54:27.248Z,12.90
2019-06-07T03:55:27.805Z,12.60
2019-06-07T03:56:28.304Z,13.00
2019-06-07T03:57:28.714Z,12.80
2019-06-07T03:58:32.076Z,12.70
2019-06-07T03:59:28.421Z,12.90
2019-06-07T04:00:28.830Z,14.10
2019-06-07T04:01:28.596Z,13.10
2019-06-07T04:02:27.861Z,16.90
2019-06-07T04:03:36.100Z,18.00
2019-06-07T04:04:27.354Z,13.50
2019-06-07T04:05:28.242Z,13.80
2019-06-07T04:06:28.834Z,13.70
2019-06-07T04:07:28.957Z,13.90
2019-06-07T04:08:26.815Z,13.00
2019-06-07T04:09:26.440Z,12.80
2019-06-07T04:10:44.895Z,14.30
2019-06-07T04:11:26.423Z,14.90
2019-06-07T04:12:26.411Z,14.20
2019-06-07T04:13:26.450Z,14.40
2019-06-07T04:14:26.393Z,14.20
2019-06-07T04:15:26.386Z,14.40
2019-06-07T04:16:26.379Z,14.20
2019-06-07T04:17:26.365Z,13.70
2019-06-07T04:18:26.359Z,12.90
2019-06-07T04:19:26.348Z,13.80
2019-06-07T04:20:26.343Z,15.80
2019-06-07T04:21:26.333Z,18.20
2019-06-07T04:22:26.319Z,15.00
2019-06-07T04:23:29.848Z,14.30
2019-06-07T04:24:26.305Z,14.90
2019-06-07T04:25:26.296Z,15.40
2019-06-07T04:26:26.286Z,14.70
2019-06-07T04:27:26.276Z,15.40
2019-06-07T04:29:19.044Z,15.10
2019-06-07T04:29:54.667Z,14.90
2019-06-07T04:30:26.251Z,16.20
2019-06-07T04:31:26.239Z,16.00
2019-06-07T04:32:26.231Z,14.70
2019-06-07T04:33:26.226Z,15.50
2019-06-07T04:34:26.215Z,15.80
2019-06-07T04:35:26.207Z,14.60
2019-06-07T04:36:42.830Z,15.00
2019-06-07T04:37:26.187Z,18.40
2019-06-07T04:38:26.180Z,15.10
2019-06-07T04:39:26.169Z,15.70
2019-06-07T04:40:26.159Z,16.00
2019-06-07T04:41:26.150Z,15.10
2019-06-07T04:42:26.144Z,15.40
2019-06-07T04:43:26.134Z,16.10
2019-06-07T04:44:26.126Z,15.10
2019-06-07T04:45:40.574Z,16.80
2019-06-07T04:46:26.108Z,15.90
2019-06-07T04:47:26.098Z,15.90
2019-06-07T04:48:26.089Z,15.30
2019-06-07T04:49:26.081Z,15.60
2019-06-07T04:50:26.069Z,15.90
2019-06-07T04:51:26.060Z,16.80
2019-06-07T04:52:26.064Z,15.00
2019-06-07T04:53:26.042Z,16.80
2019-06-07T04:54:26.033Z,15.70
2019-06-07T04:55:26.024Z,17.60
2019-06-07T04:56:26.017Z,15.90
2019-06-07T04:57:26.012Z,15.50
2019-06-07T04:58:25.998Z,15.20
2019-06-07T05:00:04.300Z,16.90
2019-06-07T05:00:48.469Z,16.00
2019-06-07T05:01:27.674Z,17.30
2019-06-07T05:02:25.984Z,16.70
2019-06-07T05:03:25.952Z,15.70
2019-06-07T05:04:25.947Z,15.70
2019-06-07T05:05:25.937Z,15.20
2019-06-07T05:06:25.930Z,19.20
2019-06-07T05:07:26.572Z,16.20
2019-06-07T05:08:28.358Z,15.70
2019-06-07T05:09:25.901Z,16.00
2019-06-07T05:10:25.894Z,16.10
2019-06-07T05:11:25.883Z,14.90
2019-06-07T05:12:25.875Z,16.40
2019-06-07T05:13:25.864Z,14.80
2019-06-07T05:14:25.855Z,15.70
2019-06-07T05:15:25.848Z,16.40
2019-06-07T05:16:25.841Z,17.60
2019-06-07T05:17:25.829Z,15.80
2019-06-07T05:18:25.820Z,18.10
2019-06-07T05:19:25.813Z,16.70
2019-06-07T05:20:25.803Z,15.80
2019-06-07T05:21:48.198Z,15.60
2019-06-07T05:22:25.784Z,17.20
2019-06-07T05:24:02.538Z,17.90
2019-06-07T05:24:25.766Z,16.00
2019-06-07T05:25:25.758Z,14.70
2019-06-07T05:26:25.749Z,16.80
2019-06-07T05:27:25.742Z,17.10
2019-06-07T05:28:25.735Z,17.20
2019-06-07T05:29:25.722Z,16.50
2019-06-07T05:30:58.531Z,23.20
2019-06-07T05:31:25.708Z,28.70
2019-06-07T05:32:25.699Z,32.10
2019-06-07T05:33:25.687Z,23.90
2019-06-07T05:34:25.680Z,20.50
2019-06-07T05:35:25.669Z,17.60
2019-06-07T05:36:25.662Z,17.40
2019-06-07T05:37:25.653Z,16.40
2019-06-07T05:38:25.644Z,17.80
2019-06-07T05:39:25.639Z,16.40
2019-06-07T05:40:25.629Z,16.90
2019-06-07T05:41:25.619Z,16.20
2019-06-07T05:42:25.605Z,15.80
2019-06-07T05:43:25.677Z,17.40
2019-06-07T05:44:25.595Z,18.70
2019-06-07T05:45:25.583Z,17.70
2019-06-07T05:46:25.571Z,18.30
2019-06-07T05:47:25.580Z,17.50
2019-06-07T05:48:26.893Z,16.70
2019-06-07T05:49:25.548Z,18.10
2019-06-07T05:50:38.920Z,17.10
2019-06-07T05:51:25.528Z,17.80
2019-06-07T05:52:25.523Z,16.60
2019-06-07T05:53:25.513Z,18.30
2019-06-07T05:54:25.509Z,17.80
2019-06-07T05:55:25.494Z,17.60
2019-06-07T05:56:25.488Z,16.50
2019-06-07T05:57:25.478Z,16.40
2019-06-07T05:58:25.469Z,17.00
2019-06-07T05:59:25.462Z,17.70
2019-06-07T06:00:25.450Z,16.80
2019-06-07T06:01:42.679Z,17.70
2019-06-07T06:02:25.520Z,18.10
2019-06-07T06:03:25.423Z,18.40
2019-06-07T06:04:25.446Z,17.00
2019-06-07T06:05:34.504Z,16.90
2019-06-07T06:06:25.399Z,17.50
2019-06-07T06:07:25.391Z,16.60
2019-06-07T06:08:25.445Z,17.60
2019-06-07T06:09:25.374Z,19.20
2019-06-07T06:10:25.367Z,17.00
2019-06-07T06:11:42.988Z,23.80
2019-06-07T06:12:35.312Z,18.10
2019-06-07T06:13:25.340Z,17.30
2019-06-07T06:14:25.341Z,17.90
2019-06-07T06:15:41.762Z,18.10
2019-06-07T06:16:25.314Z,17.70
2019-06-07T06:17:25.304Z,18.40
2019-06-07T06:18:25.297Z,17.50
2019-06-07T06:19:25.288Z,22.20
2019-06-07T06:20:32.948Z,17.50
2019-06-07T06:21:25.273Z,20.80
2019-06-07T06:22:25.263Z,28.70
2019-06-07T06:23:25.253Z,23.20
2019-06-07T06:24:25.245Z,19.00
2019-06-07T06:25:34.084Z,21.90
2019-06-07T06:26:25.227Z,17.70
2019-06-07T06:28:03.335Z,17.60
2019-06-07T06:28:25.212Z,23.20
2019-06-07T06:29:25.205Z,18.60
2019-06-07T06:30:25.195Z,21.50
2019-06-07T06:31:25.188Z,19.00
2019-06-07T06:32:46.954Z,18.30
2019-06-07T06:33:33.427Z,20.40
2019-06-07T06:34:25.163Z,18.40
2019-06-07T06:35:25.153Z,17.10
2019-06-07T06:36:25.147Z,17.90
2019-06-07T06:37:25.139Z,17.60
2019-06-07T06:38:25.128Z,18.40
2019-06-07T06:39:25.121Z,17.80
2019-06-07T06:40:25.123Z,17.30
2019-06-07T06:41:25.105Z,17.70
2019-06-07T06:42:25.095Z,18.80
2019-06-07T06:43:25.084Z,18.20
2019-06-07T06:44:25.078Z,19.30
2019-06-07T06:45:25.070Z,18.30
2019-06-07T06:46:38.183Z,22.30
2019-06-07T06:47:25.054Z,18.50
2019-06-07T06:48:25.052Z,19.00
2019-06-07T06:49:25.111Z,18.20
2019-06-07T06:50:25.027Z,20.00
2019-06-07T06:51:25.018Z,18.50
2019-06-07T06:52:25.012Z,23.50
2019-06-07T06:53:25.005Z,18.80
2019-06-07T06:54:40.341Z,18.90
2019-06-07T06:55:24.993Z,23.40
2019-06-07T06:56:24.982Z,19.30
2019-06-07T06:57:24.972Z,23.00
2019-06-07T06:58:24.966Z,18.50
2019-06-07T06:59:38.631Z,19.20
2019-06-07T07:00:43.188Z,20.70
2019-06-07T07:01:24.938Z,20.10
2019-06-07T07:02:24.967Z,19.30
2019-06-07T07:04:11.173Z,19.90
2019-06-07T07:04:24.914Z,19.10
2019-06-07T07:05:24.908Z,19.80
2019-06-07T07:06:26.743Z,20.30
2019-06-07T07:07:24.888Z,21.30
2019-06-07T07:08:24.883Z,20.80
2019-06-07T07:09:24.905Z,20.00
2019-06-07T07:10:24.868Z,20.60
2019-06-07T07:11:24.854Z,19.50
2019-06-07T07:12:24.848Z,20.70
2019-06-07T07:13:24.843Z,19.80
2019-06-07T07:14:24.831Z,19.70
2019-06-07T07:15:24.822Z,20.60
2019-06-07T07:16:24.813Z,20.30
2019-06-07T07:17:47.063Z,19.20
2019-06-07T07:18:24.800Z,20.70
2019-06-07T07:19:24.790Z,19.80
2019-06-07T07:20:24.943Z,19.70
2019-06-07T07:21:24.777Z,19.20
2019-06-07T07:22:24.763Z,19.70
2019-06-07T07:23:24.753Z,19.40
2019-06-07T07:24:24.750Z,18.80
2019-06-07T07:25:24.742Z,17.70
2019-06-07T07:26:24.732Z,19.30
2019-06-07T07:27:24.729Z,19.80
2019-06-07T07:28:24.716Z,18.00
2019-06-07T07:29:24.706Z,27.10
2019-06-07T07:30:36.684Z,19.20
2019-06-07T07:31:24.692Z,20.30
2019-06-07T07:32:24.686Z,20.10
2019-06-07T07:33:24.673Z,19.40
2019-06-07T07:34:34.472Z,20.40
2019-06-07T07:35:24.660Z,19.70
2019-06-07T07:36:38.725Z,21.90
2019-06-07T07:37:24.658Z,22.20
2019-06-07T07:38:24.633Z,18.90
2019-06-07T07:39:24.625Z,26.10
2019-06-07T07:41:24.609Z,19.60
2019-06-07T07:42:24.610Z,18.70
2019-06-07T07:43:24.594Z,19.80
2019-06-07T07:44:24.590Z,27.70
2019-06-07T07:45:24.577Z,36.40
2019-06-07T07:46:29.724Z,19.20
2019-06-07T07:47:24.564Z,25.70
2019-06-07T07:48:24.554Z,23.40
2019-06-07T07:49:24.551Z,18.30
2019-06-07T07:50:24.545Z,18.70
2019-06-07T07:51:24.533Z,20.10
2019-06-07T07:52:24.528Z,19.50
2019-06-07T07:53:24.644Z,23.80
2019-06-07T07:54:24.507Z,23.50
2019-06-07T07:55:24.591Z,24.50
2019-06-07T07:56:24.492Z,23.40
2019-06-07T07:57:24.487Z,19.80
2019-06-07T07:58:24.487Z,20.60
2019-06-07T07:59:41.349Z,18.00
2019-06-07T08:00:57.666Z,19.10
2019-06-07T08:01:24.455Z,18.30
2019-06-07T08:02:24.450Z,22.70
2019-06-07T08:03:24.442Z,18.00
2019-06-07T08:05:12.348Z,18.40
2019-06-07T08:05:41.573Z,18.90
2019-06-07T08:06:24.420Z,26.50
2019-06-07T08:07:24.413Z,20.60
2019-06-07T08:08:24.409Z,22.60
2019-06-07T08:09:24.404Z,18.60
2019-06-07T08:10:24.392Z,18.70
2019-06-07T08:11:24.382Z,21.90
2019-06-07T08:12:24.400Z,18.10
2019-06-07T08:13:26.864Z,18.80
2019-06-07T08:14:24.364Z,18.90
2019-06-07T08:15:24.363Z,18.70
2019-06-07T08:16:24.349Z,18.90
2019-06-07T08:17:24.348Z,18.90
2019-06-07T08:18:24.342Z,20.10
2019-06-07T08:19:24.327Z,18.70
2019-06-07T08:20:24.320Z,20.90
2019-06-07T08:21:26.567Z,18.50
2019-06-07T08:22:24.304Z,19.80
2019-06-07T08:23:24.300Z,23.00
2019-06-07T08:24:24.292Z,21.80
2019-06-07T08:25:24.286Z,19.90
2019-06-07T08:26:24.295Z,19.50
2019-06-07T08:27:26.725Z,25.40
2019-06-07T08:28:24.261Z,22.50
2019-06-07T08:29:24.260Z,17.70
2019-06-07T08:31:24.243Z,19.00
2019-06-07T08:32:24.235Z,19.20
2019-06-07T08:33:26.376Z,26.30
2019-06-07T08:34:24.221Z,23.90
2019-06-07T08:36:03.792Z,19.30
2019-06-07T08:36:40.824Z,20.80
2019-06-07T08:38:13.241Z,21.10
2019-06-07T08:38:33.827Z,18.20
2019-06-07T08:39:24.211Z,19.90
2019-06-07T08:40:24.181Z,18.50
2019-06-07T08:41:24.174Z,18.10
2019-06-07T08:42:36.523Z,18.70
2019-06-07T08:43:24.164Z,18.90
2019-06-07T08:44:25.697Z,19.00
2019-06-07T08:45:24.149Z,24.20
2019-06-07T08:46:24.138Z,19.20
2019-06-07T08:47:24.133Z,31.10
2019-06-07T08:48:27.907Z,19.00
2019-06-07T08:49:24.118Z,19.80
2019-06-07T08:50:24.115Z,21.30
2019-06-07T08:51:24.108Z,21.20
2019-06-07T08:52:24.099Z,18.00
2019-06-07T08:53:24.094Z,17.50
2019-06-07T08:54:24.090Z,18.30
2019-06-07T08:55:24.081Z,24.20
2019-06-07T08:56:24.078Z,24.70
2019-06-07T08:57:24.071Z,18.90
2019-06-07T08:58:24.061Z,19.40
2019-06-07T08:59:24.060Z,17.20
2019-06-07T09:01:24.045Z,26.00
2019-06-07T09:02:25.758Z,18.10
2019-06-07T09:03:24.034Z,17.40
2019-06-07T09:04:24.025Z,17.40
2019-06-07T09:05:24.023Z,16.80
2019-06-07T09:07:02.523Z,19.80
2019-06-07T09:07:24.008Z,18.60
2019-06-07T09:08:30.481Z,17.90
2019-06-07T09:09:24.037Z,17.20
2019-06-07T09:10:23.993Z,19.60
2019-06-07T09:11:23.985Z,17.30
2019-06-07T09:12:23.982Z,17.90
2019-06-07T09:13:23.979Z,22.60
2019-06-07T09:14:23.968Z,24.10
2019-06-07T09:15:24.544Z,17.60
2019-06-07T09:16:23.958Z,18.20
2019-06-07T09:17:23.949Z,16.30
2019-06-07T09:18:41.098Z,17.50
2019-06-07T09:19:23.940Z,21.30
2019-06-07T09:20:36.278Z,17.00
2019-06-07T09:21:23.929Z,18.00
2019-06-07T09:22:23.923Z,17.00
2019-06-07T09:23:23.916Z,23.20
2019-06-07T09:24:23.912Z,18.30
2019-06-07T09:25:23.907Z,21.90
2019-06-07T09:26:23.901Z,24.50
2019-06-07T09:27:23.893Z,18.50
2019-06-07T09:28:23.890Z,16.80
2019-06-07T09:29:23.889Z,16.80
2019-06-07T09:30:23.879Z,17.80
2019-06-07T09:31:23.876Z,25.50
2019-06-07T09:32:23.879Z,22.40
2019-06-07T09:33:23.863Z,16.80
2019-06-07T09:34:23.858Z,17.30
2019-06-07T09:35:23.852Z,16.50
2019-06-07T09:36:23.929Z,16.90
2019-06-07T09:38:03.624Z,17.10
2019-06-07T09:38:26.225Z,18.50
2019-06-07T09:39:23.833Z,17.00
2019-06-07T09:40:27.594Z,16.80
2019-06-07T09:41:45.796Z,16.80
2019-06-07T09:42:23.817Z,25.90
2019-06-07T09:44:00.756Z,18.40
2019-06-07T09:44:26.095Z,20.10
2019-06-07T09:45:23.804Z,18.60
2019-06-07T09:46:23.795Z,17.30
2019-06-07T09:47:32.335Z,16.20
2019-06-07T09:49:09.031Z,16.90
2019-06-07T09:49:31.928Z,19.10
2019-06-07T09:50:23.780Z,18.00
2019-06-07T09:51:23.775Z,17.30
2019-06-07T09:52:23.770Z,18.40
2019-06-07T09:53:23.802Z,16.80
2019-06-07T09:55:04.090Z,17.30
2019-06-07T09:55:25.188Z,16.20
2019-06-07T09:56:23.751Z,16.10
2019-06-07T09:57:23.748Z,14.30
2019-06-07T09:58:51.198Z,16.90
2019-06-07T09:59:23.737Z,16.30
2019-06-07T10:00:39.648Z,15.80
2019-06-07T10:01:23.729Z,16.60
2019-06-07T10:02:23.722Z,17.10
2019-06-07T10:03:23.725Z,16.60
2019-06-07T10:04:31.153Z,15.90
2019-06-07T10:05:23.709Z,16.20
2019-06-07T10:06:23.702Z,15.80
2019-06-07T10:07:31.237Z,15.90
2019-06-07T10:09:42.510Z,15.90
2019-06-07T10:10:09.258Z,15.20
2019-06-07T10:11:23.680Z,15.70
2019-06-07T10:12:23.676Z,15.70
2019-06-07T10:13:23.672Z,15.50
2019-06-07T10:14:23.682Z,15.40
2019-06-07T10:15:23.665Z,17.20
2019-06-07T10:16:23.661Z,16.00
2019-06-07T10:17:23.659Z,15.50
2019-06-07T10:18:23.652Z,15.00
2019-06-07T10:19:23.655Z,15.50
2019-06-07T10:20:23.643Z,14.10
2019-06-07T10:21:23.641Z,15.00
2019-06-07T10:22:23.633Z,15.00
2019-06-07T10:23:23.637Z,13.80
2019-06-07T10:24:23.629Z,16.30
2019-06-07T10:25:23.624Z,16.70
2019-06-07T10:26:23.617Z,15.60
2019-06-07T10:27:23.615Z,15.30
2019-06-07T10:28:23.609Z,15.40
2019-06-07T10:29:23.643Z,16.20
2019-06-07T10:30:23.600Z,15.90
2019-06-07T10:31:23.600Z,15.00
2019-06-07T10:32:23.688Z,15.10
2019-06-07T10:33:23.592Z,15.20
2019-06-07T10:34:23.590Z,14.30
2019-06-07T10:35:23.600Z,16.00
2019-06-07T10:36:23.578Z,15.50
2019-06-07T10:37:23.578Z,15.10
2019-06-07T10:38:23.568Z,14.40
2019-06-07T10:39:23.565Z,15.50
2019-06-07T10:40:23.564Z,16.20
2019-06-07T10:41:23.561Z,15.90
2019-06-07T10:42:23.554Z,16.10
2019-06-07T10:43:23.557Z,14.70
2019-06-07T10:44:23.559Z,14.20
2019-06-07T10:45:23.547Z,14.00
2019-06-07T10:46:23.550Z,19.70
2019-06-07T10:47:23.541Z,14.90
2019-06-07T10:48:25.127Z,16.80
2019-06-07T10:49:23.533Z,14.50
2019-06-07T10:50:23.526Z,15.30
2019-06-07T10:51:23.524Z,13.70
2019-06-07T10:52:23.521Z,13.20
2019-06-07T10:53:23.516Z,16.60
2019-06-07T10:54:29.422Z,13.90
2019-06-07T10:55:23.508Z,14.20
2019-06-07T10:56:23.510Z,13.90
2019-06-07T10:57:23.504Z,14.00
2019-06-07T10:58:23.502Z,13.70
2019-06-07T10:59:23.496Z,13.10
2019-06-07T11:00:23.507Z,13.90
2019-06-07T11:01:23.490Z,15.40
2019-06-07T11:02:23.490Z,15.00
2019-06-07T11:03:23.482Z,15.20
2019-06-07T11:04:23.504Z,15.00
2019-06-07T11:05:23.481Z,14.50
2019-06-07T11:06:23.474Z,14.60
2019-06-07T11:07:23.471Z,13.80
2019-06-07T11:08:23.467Z,13.90
2019-06-07T11:09:23.466Z,14.60
2019-06-07T11:10:23.462Z,14.30
2019-06-07T11:11:23.459Z,15.40
2019-06-07T11:12:23.467Z,14.90
2019-06-07T11:13:23.454Z,15.20
2019-06-07T11:14:23.451Z,25.50
2019-06-07T11:15:23.457Z,16.70
2019-06-07T11:16:23.444Z,13.10
2019-06-07T11:17:23.444Z,34.90
2019-06-07T11:18:23.437Z,13.70
2019-06-07T11:19:23.435Z,13.50
2019-06-07T11:20:23.436Z,15.80
2019-06-07T11:21:23.433Z,12.40
2019-06-07T11:22:23.426Z,13.40
2019-06-07T11:23:23.426Z,13.50
2019-06-07T11:24:24.687Z,12.70
2019-06-07T11:25:23.419Z,12.40
2019-06-07T11:26:23.415Z,13.80
2019-06-07T11:27:23.413Z,13.00
2019-06-07T11:28:23.409Z,13.20
2019-06-07T11:29:23.413Z,14.30
2019-06-07T11:30:23.420Z,13.90
2019-06-07T11:31:23.406Z,14.60
2019-06-07T11:32:23.403Z,12.50
2019-06-07T11:33:23.397Z,12.10
2019-06-07T11:34:23.393Z,12.20
2019-06-07T11:35:23.392Z,13.40
2019-06-07T11:36:23.388Z,14.40
2019-06-07T11:37:23.386Z,12.40
2019-06-07T11:38:23.387Z,14.10
2019-06-07T11:39:23.381Z,11.80
2019-06-07T11:40:34.479Z,13.00
2019-06-07T11:41:23.380Z,13.30
2019-06-07T11:42:23.373Z,13.10
2019-06-07T11:43:23.371Z,12.90
2019-06-07T11:44:23.371Z,13.20
2019-06-07T11:45:23.367Z,13.50
2019-06-07T11:46:23.369Z,14.30
2019-06-07T11:47:23.361Z,13.90
2019-06-07T11:48:23.360Z,12.40
2019-06-07T11:49:23.355Z,11.50
2019-06-07T11:50:23.351Z,10.70
2019-06-07T11:51:23.353Z,10.60
2019-06-07T11:52:23.350Z,10.90
2019-06-07T11:53:23.351Z,12.80
2019-06-07T11:54:23.346Z,11.00
2019-06-07T11:55:23.344Z,11.60
2019-06-07T11:56:23.342Z,12.80
2019-06-07T11:57:23.339Z,11.80
2019-06-07T11:58:23.337Z,13.70
2019-06-07T11:59:23.363Z,13.30
2019-06-07T12:00:23.330Z,10.70
2019-06-07T12:01:23.328Z,11.40
2019-06-07T12:02:23.327Z,9.90
2019-06-07T12:03:23.323Z,10.20
2019-06-07T12:04:34.385Z,11.90
2019-06-07T12:05:23.323Z,13.40
2019-06-07T12:06:23.322Z,11.90
2019-06-07T12:07:23.363Z,10.60
2019-06-07T12:08:23.315Z,12.70
2019-06-07T12:09:23.314Z,11.80
2019-06-07T12:10:23.327Z,11.10
2019-06-07T12:11:23.306Z,12.60
2019-06-07T12:12:23.308Z,13.50
2019-06-07T12:13:26.747Z,14.80
2019-06-07T12:14:23.301Z,15.40
2019-06-07T12:15:23.299Z,12.40
2019-06-07T12:16:23.297Z,11.60
2019-06-07T12:17:23.295Z,11.10
2019-06-07T12:18:23.295Z,10.30
2019-06-07T12:19:23.292Z,11.70
2019-06-07T12:20:23.290Z,13.20
2019-06-07T12:21:23.289Z,12.40
2019-06-07T12:22:23.287Z,10.30
2019-06-07T12:23:23.288Z,10.10
2019-06-07T12:24:23.282Z,11.40
2019-06-07T12:25:25.131Z,11.30
2019-06-07T12:26:23.282Z,11.70
2019-06-07T12:27:23.276Z,11.90
2019-06-07T12:28:23.274Z,12.00
2019-06-07T12:29:23.276Z,12.30
2019-06-07T12:30:27.683Z,11.70
2019-06-07T12:31:23.274Z,11.60
2019-06-07T12:32:23.271Z,9.70
2019-06-07T12:33:23.267Z,9.30
2019-06-07T12:34:23.269Z,14.80
2019-06-07T12:35:23.262Z,15.00
2019-06-07T12:36:23.266Z,12.30
2019-06-07T12:37:39.136Z,12.40
2019-06-07T12:38:23.264Z,13.20
2019-06-07T12:39:23.258Z,12.80
2019-06-07T12:40:31.571Z,11.20
2019-06-07T12:41:23.254Z,11.80
2019-06-07T12:42:23.250Z,11.00
2019-06-07T12:43:23.428Z,10.30
2019-06-07T12:44:23.249Z,10.60
2019-06-07T12:45:43.842Z,9.80
2019-06-07T12:46:28.047Z,11.00
2019-06-07T12:47:23.312Z,11.30
2019-06-07T12:48:25.870Z,13.40
2019-06-07T12:49:23.634Z,13.40
2019-06-07T12:50:25.281Z,11.70
2019-06-07T12:51:23.549Z,12.10
2019-06-07T12:52:24.584Z,15.00
2019-06-07T12:53:26.441Z,14.20
2019-06-07T12:54:23.889Z,12.20
2019-06-07T12:55:24.876Z,11.80
2019-06-07T12:56:24.245Z,11.10
2019-06-07T12:57:24.160Z,10.00
2019-06-07T12:58:31.015Z,9.90
2019-06-07T12:59:24.322Z,15.10
2019-06-07T13:00:24.442Z,12.70
2019-06-07T13:01:24.754Z,11.70
2019-06-07T13:02:24.016Z,10.30
2019-06-07T13:03:24.472Z,11.10